Time;durP1;ratioP1;P1;durP2;ratioP2;P2;SDS_P1;SDS_P2;PMS_P1;PMS_P2;Temp;Humidity;BMP_temperature;BMP_pressure;BME280_temperature;BME280_humidity;BME280_pressure;Samples;Min_cycle;Max_cycle;Signal;HPM_P1;HPM_P2
2023/09/12 00:01:10;;;;;;;0.10;0.10;;;;;;;;;;5011485;28;20041;-90
2023/09/12 00:03:36;;;;;;;0.10;0.10;;;;;;;;;;4995316;28;20184;-90
2023/09/12 00:06:03;;;;;;;0.10;0.10;;;;;;;;;;5011078;28;20050;-90
2023/09/12 00:08:29;;;;;;;0.10;0.10;;;;;;;;;;5013359;28;20525;-90
2023/09/12 00:11:10;;;;;;;0.10;0.10;;;;;;;;;;5015532;28;20225;-90
2023/09/12 00:13:36;;;;;;;0.10;0.10;;;;;;;;;;5015281;28;20052;-89
2023/09/12 00:16:03;;;;;;;0.10;0.10;;;;;;;;;;4998898;28;20049;-90
2023/09/12 00:18:29;;;;;;;0.10;0.10;;;;;;;;;;5032022;28;20492;-90
2023/09/12 00:20:55;;;;;;;0.55;0.40;;;;;;;;;;5015112;28;20054;-90
2023/09/12 00:23:21;;;;;;;0.10;0.10;;;;;;;;;;5031880;28;20050;-90
2023/09/12 00:25:47;;;;;;;0.17;0.17;;;;;;;;;;5014681;28;20508;-90
2023/09/12 00:28:13;;;;;;;0.10;0.10;;;;;;;;;;5015046;28;20042;-90
2023/09/12 00:30:39;;;;;;;0.10;0.10;;;;;;;;;;5015171;28;20042;-90
2023/09/12 00:33:05;;;;;;;0.10;0.10;;;;;;;;;;4999030;28;20100;-90
2023/09/12 00:35:31;;;;;;;0.10;0.10;;;;;;;;;;4998466;28;20124;-90
2023/09/12 00:37:57;;;;;;;0.10;0.10;;;;;;;;;;4998666;28;20042;-93
2023/09/12 00:40:23;;;;;;;0.20;0.20;;;;;;;;;;5014780;28;20489;-93
2023/09/12 00:42:49;;;;;;;0.10;0.10;;;;;;;;;;5014649;28;20046;-92
2023/09/12 00:45:16;;;;;;;0.10;0.10;;;;;;;;;;4998183;28;20042;-93
2023/09/12 00:47:42;;;;;;;0.30;0.30;;;;;;;;;;5014769;28;20060;-92
2023/09/12 00:50:10;;;;;;;0.20;0.10;;;;;;;;;;4998690;28;20474;-92
2023/09/12 00:52:36;;;;;;;0.10;0.10;;;;;;;;;;4997911;28;20180;-93
2023/09/12 00:55:02;;;;;;;0.15;0.15;;;;;;;;;;5014536;28;20111;-92
2023/09/12 00:57:28;;;;;;;0.20;0.20;;;;;;;;;;4998151;28;20129;-92
2023/09/12 00:59:55;;;;;;;0.10;0.10;;;;;;;;;;4998032;28;20484;-93
2023/09/12 01:02:22;;;;;;;0.10;0.10;;;;;;;;;;4998077;28;20081;-92
2023/09/12 01:04:48;;;;;;;0.30;0.30;;;;;;;;;;4998350;28;20045;-93
2023/09/12 01:07:14;;;;;;;0.20;0.20;;;;;;;;;;4998363;28;20125;-93
2023/09/12 01:09:40;;;;;;;0.10;0.10;;;;;;;;;;4998098;28;20084;-93
2023/09/12 01:12:07;;;;;;;0.10;0.10;;;;;;;;;;4998014;28;20392;-93
2023/09/12 01:14:33;;;;;;;0.10;0.10;;;;;;;;;;5014144;28;20085;-93
2023/09/12 01:16:59;;;;;;;0.10;0.10;;;;;;;;;;5014274;28;20543;-93
2023/09/12 01:19:25;;;;;;;0.10;0.10;;;;;;;;;;5012826;28;20491;-93
2023/09/12 01:22:00;;;;;;;0.10;0.10;;;;;;;;;;4997562;28;20125;-93
2023/09/12 01:24:45;;;;;;;0.10;0.10;;;;;;;;;;5015358;28;20046;-93
2023/09/12 01:27:11;;;;;;;0.10;0.10;;;;;;;;;;4997716;28;20125;-93
2023/09/12 01:29:37;;;;;;;0.10;0.10;;;;;;;;;;5013790;28;20073;-93
2023/09/12 01:32:04;;;;;;;0.10;0.10;;;;;;;;;;4998162;28;20100;-93
2023/09/12 01:34:32;;;;;;;0.10;0.10;;;;;;;;;;4997319;28;20060;-93
2023/09/12 01:36:58;;;;;;;0.10;0.10;;;;;;;;;;5013879;28;20116;-92
2023/09/12 01:39:24;;;;;;;0.10;0.10;;;;;;;;;;5014034;28;20080;-93
2023/09/12 01:41:53;;;;;;;0.10;0.10;;;;;;;;;;5013292;28;20485;-93
2023/09/12 01:44:19;;;;;;;0.10;0.10;;;;;;;;;;4997395;28;20434;-92
2023/09/12 01:46:45;;;;;;;0.10;0.10;;;;;;;;;;5030621;28;20052;-93
2023/09/12 01:49:13;;;;;;;0.10;0.10;;;;;;;;;;4997384;28;20513;-93
2023/09/12 01:51:39;;;;;;;0.10;0.10;;;;;;;;;;5013641;28;20101;-93
2023/09/12 01:54:05;;;;;;;0.20;0.20;;;;;;;;;;4996960;28;20124;-93
2023/09/12 01:56:31;;;;;;;0.10;0.10;;;;;;;;;;4997154;28;20477;-93
2023/09/12 01:58:57;;;;;;;0.10;0.10;;;;;;;;;;5013522;28;20057;-92
2023/09/12 02:01:26;;;;;;;0.10;0.10;;;;;;;;;;4997031;28;20510;-92
2023/09/12 02:03:52;;;;;;;0.10;0.10;;;;;;;;;;5013540;28;20037;-93
2023/09/12 02:06:18;;;;;;;0.10;0.10;;;;;;;;;;5013056;28;20060;-93
2023/09/12 02:08:44;;;;;;;0.10;0.10;;;;;;;;;;4997185;28;20046;-93
2023/09/12 02:11:10;;;;;;;0.10;0.10;;;;;;;;;;4996786;28;20042;-92
2023/09/12 02:13:37;;;;;;;0.10;0.10;;;;;;;;;;4996882;28;20041;-92
2023/09/12 02:16:03;;;;;;;0.10;0.10;;;;;;;;;;4996756;28;20493;-93
2023/09/12 02:18:29;;;;;;;0.20;0.20;;;;;;;;;;5013136;28;20092;-92
2023/09/12 02:20:55;;;;;;;0.10;0.10;;;;;;;;;;4996250;28;20052;-93
2023/09/12 02:23:22;;;;;;;0.10;0.10;;;;;;;;;;4996226;28;20141;-92
2023/09/12 02:25:48;;;;;;;0.10;0.10;;;;;;;;;;4996318;28;20077;-93
2023/09/12 02:28:14;;;;;;;0.10;0.10;;;;;;;;;;4996731;28;20157;-93
2023/09/12 02:30:40;;;;;;;0.10;0.10;;;;;;;;;;4995989;28;20042;-92
2023/09/12 02:33:06;;;;;;;0.10;0.10;;;;;;;;;;4996229;28;20434;-92
2023/09/12 02:35:32;;;;;;;0.10;0.10;;;;;;;;;;4996060;28;20125;-93
2023/09/12 02:37:58;;;;;;;0.10;0.10;;;;;;;;;;4996304;28;20034;-92
2023/09/12 02:40:24;;;;;;;0.10;0.10;;;;;;;;;;4996153;28;20151;-93
2023/09/12 02:42:51;;;;;;;0.10;0.10;;;;;;;;;;4996222;28;20044;-93
2023/09/12 02:45:17;;;;;;;0.28;0.28;;;;;;;;;;4996211;28;20084;-92
2023/09/12 02:47:46;;;;;;;0.10;0.10;;;;;;;;;;4996104;28;20041;-92
2023/09/12 02:50:12;;;;;;;0.10;0.10;;;;;;;;;;5012241;28;20557;-92
2023/09/12 02:52:38;;;;;;;0.10;0.10;;;;;;;;;;4995900;28;20042;-92
2023/09/12 02:55:04;;;;;;;0.10;0.10;;;;;;;;;;5012361;28;20512;-92
2023/09/12 02:57:30;;;;;;;0.10;0.10;;;;;;;;;;5028627;28;20048;-92
2023/09/12 02:59:56;;;;;;;0.10;0.10;;;;;;;;;;4996048;28;20132;-92
2023/09/12 03:02:22;;;;;;;0.10;0.10;;;;;;;;;;5012266;28;20041;-92
2023/09/12 03:04:48;;;;;;;0.10;0.10;;;;;;;;;;4995408;28;20092;-92
2023/09/12 03:07:16;;;;;;;0.30;0.30;;;;;;;;;;4995727;28;20493;-92
2023/09/12 03:09:42;;;;;;;0.10;0.10;;;;;;;;;;4995808;28;20061;-92
2023/09/12 03:12:08;;;;;;;0.10;0.10;;;;;;;;;;5012252;28;20489;-92
2023/09/12 03:14:34;;;;;;;0.10;0.10;;;;;;;;;;5012264;28;20049;-93
2023/09/12 03:17:00;;;;;;;0.35;0.35;;;;;;;;;;5012164;28;20123;-93
2023/09/12 03:19:26;;;;;;;0.10;0.10;;;;;;;;;;5011707;28;20147;-93
2023/09/12 03:21:52;;;;;;;0.10;0.10;;;;;;;;;;5012275;28;20093;-93
2023/09/12 03:24:18;;;;;;;0.10;0.10;;;;;;;;;;5012201;28;20504;-93
2023/09/12 03:26:44;;;;;;;0.10;0.10;;;;;;;;;;4995862;28;20132;-93
2023/09/12 03:29:10;;;;;;;0.10;0.10;;;;;;;;;;5012095;28;20505;-93
2023/09/12 03:31:39;;;;;;;0.10;0.10;;;;;;;;;;4996296;28;20494;-93
2023/09/12 03:34:05;;;;;;;0.20;0.20;;;;;;;;;;5011895;28;20089;-92
2023/09/12 03:36:31;;;;;;;0.10;0.10;;;;;;;;;;5012002;28;20033;-93
2023/09/12 03:38:57;;;;;;;0.10;0.10;;;;;;;;;;4995511;28;20366;-93
2023/09/12 03:41:25;;;;;;;0.10;0.10;;;;;;;;;;4996063;28;20060;-93
2023/09/12 03:43:53;;;;;;;0.10;0.10;;;;;;;;;;5014210;28;20042;-93
2023/09/12 03:46:19;;;;;;;0.10;0.10;;;;;;;;;;5015860;28;20088;-93
2023/09/12 03:48:45;;;;;;;0.10;0.10;;;;;;;;;;4999238;28;20045;-92
2023/09/12 03:51:14;;;;;;;0.10;0.10;;;;;;;;;;5015751;28;20115;-93
2023/09/12 03:53:40;;;;;;;0.10;0.10;;;;;;;;;;4999554;28;20504;-93
2023/09/12 03:56:06;;;;;;;0.10;0.10;;;;;;;;;;5015949;28;20045;-93
2023/09/12 03:58:32;;;;;;;0.10;0.10;;;;;;;;;;5015938;28;20057;-92
2023/09/12 04:00:58;;;;;;;0.10;0.10;;;;;;;;;;5015353;28;20346;-93
2023/09/12 04:03:24;;;;;;;0.10;0.10;;;;;;;;;;5015725;28;20034;-92
2023/09/12 04:05:50;;;;;;;0.10;0.10;;;;;;;;;;4999695;28;20038;-94
2023/09/12 04:08:17;;;;;;;0.10;0.10;;;;;;;;;;5015710;28;20041;-93
2023/09/12 04:10:43;;;;;;;0.10;0.10;;;;;;;;;;5014913;28;20045;-92
2023/09/12 04:13:09;;;;;;;0.10;0.10;;;;;;;;;;4999108;28;20444;-93
2023/09/12 04:15:35;;;;;;;0.10;0.10;;;;;;;;;;4998861;28;20060;-93
2023/09/12 04:18:01;;;;;;;0.10;0.10;;;;;;;;;;5032223;28;20091;-93
2023/09/12 04:20:27;;;;;;;0.10;0.10;;;;;;;;;;5015303;28;20214;-93
2023/09/12 04:22:53;;;;;;;0.15;0.15;;;;;;;;;;4998859;28;20559;-93
2023/09/12 04:25:19;;;;;;;0.10;0.10;;;;;;;;;;4999018;28;20037;-93
2023/09/12 04:27:45;;;;;;;0.10;0.10;;;;;;;;;;4999053;28;20397;-93
2023/09/12 04:30:14;;;;;;;0.20;0.20;;;;;;;;;;4998196;28;20041;-93
2023/09/12 04:32:40;;;;;;;0.10;0.10;;;;;;;;;;4999082;28;20121;-93
2023/09/12 04:35:06;;;;;;;0.10;0.10;;;;;;;;;;4998585;28;20228;-93
2023/09/12 04:37:32;;;;;;;0.10;0.10;;;;;;;;;;5014751;28;20605;-93
2023/09/12 04:39:58;;;;;;;0.10;0.10;;;;;;;;;;4998813;28;20132;-92
2023/09/12 04:42:24;;;;;;;0.10;0.10;;;;;;;;;;4998487;28;20046;-93
2023/09/12 04:44:50;;;;;;;0.10;0.10;;;;;;;;;;4998006;28;20048;-93
2023/09/12 04:47:16;;;;;;;0.10;0.10;;;;;;;;;;5030830;28;20045;-93
2023/09/12 04:49:43;;;;;;;0.10;0.10;;;;;;;;;;4998427;28;20053;-92
2023/09/12 04:52:09;;;;;;;0.13;0.13;;;;;;;;;;4998023;28;20045;-93
2023/09/12 04:54:36;;;;;;;0.10;0.10;;;;;;;;;;4998072;28;20049;-93
2023/09/12 04:57:04;;;;;;;0.17;0.17;;;;;;;;;;4998382;28;20046;-94
2023/09/12 04:59:30;;;;;;;0.10;0.10;;;;;;;;;;4998783;28;20404;-95
2023/09/12 05:01:56;;;;;;;0.10;0.10;;;;;;;;;;5014317;28;20049;-93
2023/09/12 05:04:22;;;;;;;0.10;0.10;;;;;;;;;;5014318;28;20045;-92
2023/09/12 05:06:48;;;;;;;0.28;0.28;;;;;;;;;;4998114;28;20073;-92
2023/09/12 05:09:16;;;;;;;0.20;0.20;;;;;;;;;;5030881;28;20042;-92
2023/09/12 05:11:42;;;;;;;0.10;0.10;;;;;;;;;;4998878;28;20042;-92
2023/09/12 05:14:08;;;;;;;0.10;0.10;;;;;;;;;;5020275;28;20133;-92
2023/09/12 05:16:34;;;;;;;0.10;0.10;;;;;;;;;;5013328;28;20042;-92
2023/09/12 05:19:00;;;;;;;0.10;0.10;;;;;;;;;;5021191;28;20046;-92
2023/09/12 05:21:26;;;;;;;0.10;0.10;;;;;;;;;;5020535;28;20052;-92
2023/09/12 05:23:51;;;;;;;0.10;0.10;;;;;;;;;;5020659;28;20038;-92
2023/09/12 05:26:17;;;;;;;0.10;0.10;;;;;;;;;;5035490;28;20093;-92
2023/09/12 05:28:43;;;;;;;0.10;0.10;;;;;;;;;;5037337;28;20030;-92
2023/09/12 05:31:09;;;;;;;0.10;0.10;;;;;;;;;;4998099;28;20038;-93
2023/09/12 05:33:35;;;;;;;0.10;0.10;;;;;;;;;;4997571;28;20095;-92
2023/09/12 05:36:02;;;;;;;0.10;0.10;;;;;;;;;;4997806;28;20436;-92
2023/09/12 05:38:28;;;;;;;0.10;0.10;;;;;;;;;;4998060;28;20038;-92
2023/09/12 05:40:54;;;;;;;0.10;0.10;;;;;;;;;;4997528;28;20237;-93
2023/09/12 05:43:20;;;;;;;0.10;0.10;;;;;;;;;;5033356;28;20045;-92
2023/09/12 05:45:46;;;;;;;0.10;0.10;;;;;;;;;;5016956;28;20052;-92
2023/09/12 05:48:12;;;;;;;0.10;0.10;;;;;;;;;;4997180;28;20386;-92
2023/09/12 05:50:38;;;;;;;0.10;0.10;;;;;;;;;;4997425;28;20049;-92
2023/09/12 05:53:04;;;;;;;0.10;0.10;;;;;;;;;;5013413;28;20049;-92
2023/09/12 05:55:30;;;;;;;0.10;0.10;;;;;;;;;;4997218;28;20042;-93
2023/09/12 05:57:56;;;;;;;0.10;0.10;;;;;;;;;;5013025;28;20466;-92
2023/09/12 06:00:22;;;;;;;0.10;0.10;;;;;;;;;;4996748;28;20103;-92
2023/09/12 06:02:48;;;;;;;0.30;0.30;;;;;;;;;;4996760;28;20121;-92
2023/09/12 06:05:15;;;;;;;0.10;0.10;;;;;;;;;;4996216;28;20030;-91
2023/09/12 06:07:41;;;;;;;0.10;0.10;;;;;;;;;;5012892;28;20465;-93
2023/09/12 06:10:08;;;;;;;0.10;0.10;;;;;;;;;;5012560;28;20042;-92
2023/09/12 06:12:35;;;;;;;0.10;0.10;;;;;;;;;;5013375;28;20037;-92
2023/09/12 06:15:02;;;;;;;0.10;0.10;;;;;;;;;;4997319;28;20045;-92
2023/09/12 06:17:28;;;;;;;0.10;0.10;;;;;;;;;;5012848;28;20041;-92
2023/09/12 06:19:55;;;;;;;0.10;0.10;;;;;;;;;;4995995;28;20405;-92
2023/09/12 06:22:22;;;;;;;0.17;0.17;;;;;;;;;;4996217;28;20048;-92
2023/09/12 06:24:48;;;;;;;0.10;0.10;;;;;;;;;;4996322;28;20180;-92
2023/09/12 06:27:18;;;;;;;0.20;0.20;;;;;;;;;;4996399;28;20128;-92
2023/09/12 06:29:48;;;;;;;0.15;0.15;;;;;;;;;;5013328;28;20097;-92
2023/09/12 06:32:15;;;;;;;0.10;0.10;;;;;;;;;;4996331;28;20049;-92
2023/09/12 06:34:41;;;;;;;0.10;0.10;;;;;;;;;;4996202;28;20132;-92
2023/09/12 06:37:07;;;;;;;0.10;0.10;;;;;;;;;;5012163;28;20169;-92
2023/09/12 06:39:33;;;;;;;0.10;0.10;;;;;;;;;;4996355;28;20205;-92
2023/09/12 06:41:59;;;;;;;0.10;0.10;;;;;;;;;;5012512;28;20529;-92
2023/09/12 06:44:25;;;;;;;0.10;0.10;;;;;;;;;;5012550;28;20077;-92
2023/09/12 06:46:51;;;;;;;0.10;0.10;;;;;;;;;;5012494;28;20041;-92
2023/09/12 06:49:17;;;;;;;0.10;0.10;;;;;;;;;;4996021;28;20414;-92
2023/09/12 06:51:43;;;;;;;0.10;0.10;;;;;;;;;;4995983;28;20047;-93
2023/09/12 06:54:09;;;;;;;0.10;0.10;;;;;;;;;;4996338;28;20096;-92
2023/09/12 06:56:37;;;;;;;0.10;0.10;;;;;;;;;;4996644;28;20050;-92
2023/09/12 06:59:04;;;;;;;0.10;0.10;;;;;;;;;;5012469;28;20426;-92
2023/09/12 07:01:30;;;;;;;0.22;0.20;;;;;;;;;;4995940;28;20492;-93
2023/09/12 07:03:56;;;;;;;0.10;0.10;;;;;;;;;;4996048;28;20540;-92
2023/09/12 07:06:22;;;;;;;0.10;0.10;;;;;;;;;;5012017;28;20038;-92
2023/09/12 07:08:48;;;;;;;0.10;0.10;;;;;;;;;;5012198;28;20382;-93
2023/09/12 07:11:14;;;;;;;0.10;0.10;;;;;;;;;;4995907;28;20465;-93
2023/09/12 07:13:40;;;;;;;0.10;0.10;;;;;;;;;;5011859;28;20042;-92
2023/09/12 07:16:06;;;;;;;0.10;0.10;;;;;;;;;;4995909;28;20038;-92
2023/09/12 07:18:32;;;;;;;0.17;0.17;;;;;;;;;;4995627;28;20412;-93
2023/09/12 07:20:59;;;;;;;0.10;0.10;;;;;;;;;;4995417;28;20129;-93
2023/09/12 07:23:25;;;;;;;0.10;0.10;;;;;;;;;;4995981;28;20069;-93
2023/09/12 07:25:54;;;;;;;0.20;0.20;;;;;;;;;;5012266;28;20045;-93
2023/09/12 07:28:20;;;;;;;0.10;0.10;;;;;;;;;;4995828;28;20396;-93
2023/09/12 07:30:49;;;;;;;0.30;0.30;;;;;;;;;;4995276;28;20050;-93
2023/09/12 07:33:15;;;;;;;0.15;0.15;;;;;;;;;;5012218;28;20034;-93
2023/09/12 07:35:41;;;;;;;0.10;0.10;;;;;;;;;;5011867;28;20061;-93
2023/09/12 07:38:07;;;;;;;0.17;0.17;;;;;;;;;;4996012;28;20040;-93
2023/09/12 07:40:34;;;;;;;0.10;0.10;;;;;;;;;;4995412;28;20506;-93
2023/09/12 07:43:04;;;;;;;0.10;0.10;;;;;;;;;;4995410;28;20202;-93
2023/09/12 07:45:31;;;;;;;0.10;0.10;;;;;;;;;;5012555;28;20053;-92
2023/09/12 07:47:57;;;;;;;0.10;0.10;;;;;;;;;;4995614;28;20041;-93
2023/09/12 07:50:23;;;;;;;0.30;0.30;;;;;;;;;;4994942;28;20412;-93
2023/09/12 07:52:49;;;;;;;0.10;0.10;;;;;;;;;;5011599;28;20096;-94
2023/09/12 07:55:15;;;;;;;0.10;0.10;;;;;;;;;;5011588;28;20374;-93
2023/09/12 07:57:41;;;;;;;0.10;0.10;;;;;;;;;;5011897;28;20133;-93
2023/09/12 08:00:09;;;;;;;0.10;0.10;;;;;;;;;;5011939;28;20049;-92
2023/09/12 08:02:35;;;;;;;0.10;0.10;;;;;;;;;;5010557;28;20034;-93
2023/09/12 08:05:01;;;;;;;0.20;0.20;;;;;;;;;;4995205;28;20050;-93
2023/09/12 08:07:27;;;;;;;0.30;0.30;;;;;;;;;;4995615;28;20037;-93
2023/09/12 08:09:59;;;;;;;0.30;0.30;;;;;;;;;;4995107;28;20048;-93
2023/09/12 08:12:26;;;;;;;0.10;0.10;;;;;;;;;;5011746;28;20048;-93
2023/09/12 08:14:52;;;;;;;0.32;0.32;;;;;;;;;;5011246;28;20121;-92
2023/09/12 08:17:18;;;;;;;0.13;0.13;;;;;;;;;;4995274;28;20413;-93
2023/09/12 08:19:44;;;;;;;0.20;0.20;;;;;;;;;;4994859;28;20054;-93
2023/09/12 08:22:10;;;;;;;0.30;0.30;;;;;;;;;;4995329;28;20045;-92
2023/09/12 08:24:36;;;;;;;0.20;0.20;;;;;;;;;;4995173;28;20397;-93
2023/09/12 08:27:07;;;;;;;0.30;0.30;;;;;;;;;;4995304;28;20042;-93
2023/09/12 08:29:33;;;;;;;0.10;0.10;;;;;;;;;;5013071;28;20173;-94
2023/09/12 08:32:00;;;;;;;0.20;0.20;;;;;;;;;;4998675;28;20077;-93
2023/09/12 08:34:26;;;;;;;0.10;0.10;;;;;;;;;;4999131;28;20405;-93
2023/09/12 08:36:54;;;;;;;0.20;0.20;;;;;;;;;;4998725;28;20042;-93
2023/09/12 08:39:24;;;;;;;0.10;0.10;;;;;;;;;;4999578;28;20132;-93
2023/09/12 08:41:50;;;;;;;0.38;0.30;;;;;;;;;;5015008;28;20102;-93
2023/09/12 08:44:16;;;;;;;0.43;0.30;;;;;;;;;;5014628;28;20133;-92
2023/09/12 08:46:42;;;;;;;0.10;0.10;;;;;;;;;;4998347;28;20069;-92
2023/09/12 08:49:11;;;;;;;0.10;0.10;;;;;;;;;;4998345;28;20074;-93
2023/09/12 08:51:40;;;;;;;0.55;0.47;;;;;;;;;;4998868;28;20042;-93
2023/09/12 08:54:10;;;;;;;0.10;0.10;;;;;;;;;;4998445;28;20366;-92
2023/09/12 08:56:37;;;;;;;0.10;0.10;;;;;;;;;;4998387;28;20466;-91
2023/09/12 08:59:03;;;;;;;0.20;0.20;;;;;;;;;;5014709;28;20045;-90
2023/09/12 09:01:30;;;;;;;0.10;0.10;;;;;;;;;;5014440;28;20076;-90
2023/09/12 09:03:56;;;;;;;0.20;0.20;;;;;;;;;;5014354;28;20042;-90
2023/09/12 09:06:22;;;;;;;0.20;0.20;;;;;;;;;;4998098;28;20165;-90
2023/09/12 09:08:49;;;;;;;0.10;0.10;;;;;;;;;;4998151;28;20045;-91
2023/09/12 09:11:15;;;;;;;0.10;0.10;;;;;;;;;;4998107;28;20045;-90
2023/09/12 09:13:41;;;;;;;0.10;0.10;;;;;;;;;;4998057;28;20050;-91
2023/09/12 09:16:14;;;;;;;0.10;0.10;;;;;;;;;;4998548;28;20042;-90
2023/09/12 09:18:39;;;;;;;;;;;;;;;;;;5014720;28;20045;-90
2023/09/12 09:21:18;;;;;;;0.13;0.13;;;;;;;;;;5014433;28;19921;-89
2023/09/12 09:23:47;;;;;;;0.63;0.63;;;;;;;;;;4998286;28;20117;-90
2023/09/12 09:26:13;;;;;;;0.10;0.10;;;;;;;;;;4997551;28;20042;-90
2023/09/12 09:28:39;;;;;;;0.15;0.15;;;;;;;;;;5014220;28;20034;-91
2023/09/12 09:31:10;;;;;;;0.20;0.20;;;;;;;;;;5014286;28;20355;-90
2023/09/12 09:33:36;;;;;;;0.10;0.10;;;;;;;;;;5013876;28;20618;-91
2023/09/12 09:36:04;;;;;;;0.15;0.15;;;;;;;;;;4997643;28;20073;-90
2023/09/12 09:38:30;;;;;;;0.10;0.10;;;;;;;;;;5013351;28;20042;-91
2023/09/12 09:40:56;;;;;;;0.10;0.10;;;;;;;;;;4995884;28;20456;-91
2023/09/12 09:43:22;;;;;;;0.35;0.35;;;;;;;;;;4997656;28;20049;-90
2023/09/12 09:45:48;;;;;;;0.47;0.47;;;;;;;;;;4997755;28;20061;-90
2023/09/12 09:48:20;;;;;;;0.43;0.43;;;;;;;;;;4997600;28;20481;-90
2023/09/12 09:50:46;;;;;;;0.10;0.10;;;;;;;;;;4997288;28;20069;-89
2023/09/12 09:53:14;;;;;;;0.15;0.15;;;;;;;;;;5014526;28;20049;-89
2023/09/12 09:55:40;;;;;;;0.10;0.10;;;;;;;;;;4997144;28;20091;-90
2023/09/12 09:58:06;;;;;;;0.10;0.10;;;;;;;;;;5029776;28;20481;-91
2023/09/12 10:00:33;;;;;;;0.10;0.10;;;;;;;;;;4997122;28;20049;-89
2023/09/12 10:03:04;;;;;;;0.22;0.22;;;;;;;;;;4997972;28;20056;-94
2023/09/12 10:05:30;;;;;;;0.10;0.10;;;;;;;;;;5013970;28;20505;-90
2023/09/12 10:07:56;;;;;;;0.20;0.20;;;;;;;;;;5013932;28;20042;-90
2023/09/12 10:10:22;;;;;;;0.10;0.10;;;;;;;;;;4997190;28;20069;-92
2023/09/12 10:12:52;;;;;;;0.10;0.10;;;;;;;;;;4996911;28;20045;-92
2023/09/12 10:15:19;;;;;;;0.30;0.30;;;;;;;;;;5013583;28;20402;-92
2023/09/12 10:17:46;;;;;;;0.17;0.17;;;;;;;;;;4997239;28;20505;-92
2023/09/12 10:20:15;;;;;;;0.10;0.10;;;;;;;;;;5012589;28;20066;-90
2023/09/12 10:22:44;;;;;;;0.10;0.10;;;;;;;;;;5013109;28;20128;-91
2023/09/12 10:25:28;;;;;;;0.10;0.10;;;;;;;;;;5019135;28;20038;-95
2023/09/12 10:27:54;;;;;;;0.10;0.10;;;;;;;;;;4998210;28;20042;-93
2023/09/12 10:30:22;;;;;;;0.20;0.20;;;;;;;;;;5013317;28;20033;-94
2023/09/12 10:32:48;;;;;;;0.20;0.20;;;;;;;;;;5029285;28;20112;-93
2023/09/12 10:35:14;;;;;;;0.20;0.20;;;;;;;;;;4996822;28;20041;-93
2023/09/12 10:37:42;;;;;;;0.10;0.10;;;;;;;;;;4996870;28;20053;-93
2023/09/12 10:40:08;;;;;;;0.20;0.20;;;;;;;;;;5014008;28;20053;-92
2023/09/12 10:42:34;;;;;;;0.20;0.20;;;;;;;;;;4997616;28;20119;-93
2023/09/12 10:45:00;;;;;;;0.10;0.10;;;;;;;;;;4996922;28;20474;-93
2023/09/12 10:47:27;;;;;;;0.10;0.10;;;;;;;;;;4996929;28;20063;-93
2023/09/12 10:49:53;;;;;;;0.10;0.10;;;;;;;;;;5013708;28;20088;-94
2023/09/12 10:52:26;;;;;;;0.10;0.10;;;;;;;;;;4996630;28;20137;-94
2023/09/12 10:54:52;;;;;;;0.10;0.10;;;;;;;;;;5014270;28;20374;-96
2023/09/12 10:57:19;;;;;;;0.10;0.10;;;;;;;;;;4997936;28;20049;-93
2023/09/12 11:00:20;;;;;;;0.10;0.10;;;;;;;;;;4996850;28;20176;-94
2023/09/12 11:02:46;;;;;;;0.10;0.10;;;;;;;;;;4941335;28;20205;-94
2023/09/12 11:05:28;;;;;;;0.10;0.10;;;;;;;;;;5004904;28;20532;-92
2023/09/12 11:08:01;;;;;;;0.10;0.10;;;;;;;;;;5028125;28;20497;-89
2023/09/12 11:10:27;;;;;;;0.10;0.10;;;;;;;;;;4995616;28;20034;-91
2023/09/12 11:12:54;;;;;;;0.10;0.10;;;;;;;;;;5012340;28;20148;-91
2023/09/12 11:15:21;;;;;;;0.10;0.10;;;;;;;;;;5012095;28;20504;-91
2023/09/12 11:17:50;;;;;;;0.10;0.10;;;;;;;;;;5012154;28;20041;-90
2023/09/12 11:20:17;;;;;;;0.10;0.10;;;;;;;;;;5011531;28;20135;-89
2023/09/12 11:22:44;;;;;;;0.10;0.10;;;;;;;;;;4995100;28;20050;-88
2023/09/12 11:25:25;;;;;;;0.10;0.10;;;;;;;;;;4995337;28;20048;-88
2023/09/12 11:27:54;;;;;;;0.10;0.10;;;;;;;;;;4995460;28;20050;-92
2023/09/12 11:30:23;;;;;;;0.20;0.20;;;;;;;;;;5028085;28;20038;-92
2023/09/12 11:32:55;;;;;;;0.10;0.10;;;;;;;;;;5011966;28;20045;-90
2023/09/12 11:35:40;;;;;;;0.30;0.30;;;;;;;;;;5027818;28;20050;-89
2023/09/12 11:38:10;;;;;;;0.10;0.10;;;;;;;;;;4995245;28;20128;-89
2023/09/12 11:40:36;;;;;;;0.10;0.10;;;;;;;;;;5012369;28;20081;-88
2023/09/12 11:43:02;;;;;;;0.10;0.10;;;;;;;;;;5011343;28;20080;-89
2023/09/12 11:45:28;;;;;;;0.10;0.10;;;;;;;;;;5011004;28;20046;-89
2023/09/12 11:47:54;;;;;;;0.10;0.10;;;;;;;;;;5011318;28;20125;-89
2023/09/12 11:50:38;;;;;;;0.10;0.10;;;;;;;;;;5011504;28;20113;-88
2023/09/12 11:53:05;;;;;;;0.20;0.20;;;;;;;;;;4995370;28;20100;-91
2023/09/12 11:55:31;;;;;;;0.10;0.10;;;;;;;;;;4995063;28;20042;-91
2023/09/12 11:57:57;;;;;;;0.10;0.10;;;;;;;;;;4994689;28;20073;-90
2023/09/12 12:00:26;;;;;;;0.20;0.20;;;;;;;;;;4995097;28;20461;-93
2023/09/12 12:02:54;;;;;;;0.10;0.10;;;;;;;;;;4996357;28;20042;-95
2023/09/12 12:05:20;;;;;;;0.10;0.10;;;;;;;;;;4998880;28;20501;-92
2023/09/12 12:07:47;;;;;;;0.10;0.10;;;;;;;;;;4999294;28;20041;-90
2023/09/12 12:10:13;;;;;;;0.10;0.10;;;;;;;;;;5015053;28;20050;-91
2023/09/12 12:12:39;;;;;;;0.17;0.17;;;;;;;;;;5014908;28;20038;-91
2023/09/12 12:15:11;;;;;;;0.10;0.10;;;;;;;;;;5014920;28;20053;-91
2023/09/12 12:17:40;;;;;;;0.10;0.10;;;;;;;;;;4999451;28;20195;-91
2023/09/12 12:20:10;;;;;;;0.10;0.10;;;;;;;;;;5015706;28;20373;-91
2023/09/12 12:22:39;;;;;;;0.10;0.10;;;;;;;;;;5014958;28;20050;-90
2023/09/12 12:25:06;;;;;;;0.10;0.10;;;;;;;;;;4998737;28;20034;-91
2023/09/12 12:27:32;;;;;;;0.10;0.10;;;;;;;;;;4998532;28;20075;-92
2023/09/12 12:29:58;;;;;;;0.10;0.10;;;;;;;;;;4998965;28;20572;-95
2023/09/12 12:32:24;;;;;;;0.10;0.10;;;;;;;;;;5015606;28;20038;-93
2023/09/12 12:34:50;;;;;;;0.20;0.20;;;;;;;;;;5014809;28;20049;-91
2023/09/12 12:37:17;;;;;;;0.10;0.10;;;;;;;;;;4998098;28;20504;-90
2023/09/12 12:39:43;;;;;;;0.20;0.20;;;;;;;;;;4997939;28;20057;-89
2023/09/12 12:42:09;;;;;;;0.10;0.10;;;;;;;;;;4998038;28;20077;-89
2023/09/12 12:44:40;;;;;;;0.10;0.10;;;;;;;;;;4997880;28;20069;-90
2023/09/12 12:47:15;;;;;;;0.20;0.20;;;;;;;;;;4998885;28;20054;-91
2023/09/12 12:49:41;;;;;;;0.10;0.10;;;;;;;;;;5014316;28;20129;-90
2023/09/12 12:52:09;;;;;;;0.20;0.20;;;;;;;;;;4997787;28;20496;-90
2023/09/12 12:54:35;;;;;;;0.10;0.10;;;;;;;;;;4997915;28;20092;-90
2023/09/12 12:57:02;;;;;;;0.10;0.10;;;;;;;;;;5014313;28;20049;-90
2023/09/12 12:59:29;;;;;;;0.15;0.15;;;;;;;;;;5017795;28;20396;-92
2023/09/12 13:01:55;;;;;;;0.10;0.10;;;;;;;;;;5018841;28;20480;-91
2023/09/12 13:04:22;;;;;;;0.10;0.10;;;;;;;;;;5035517;28;20033;-91
2023/09/12 13:06:48;;;;;;;0.10;0.10;;;;;;;;;;5033635;28;20560;-91
2023/09/12 13:09:13;;;;;;;0.10;0.10;;;;;;;;;;5017655;28;20120;-91
2023/09/12 13:11:39;;;;;;;0.10;0.10;;;;;;;;;;5001242;28;20037;-91
2023/09/12 13:14:09;;;;;;;0.10;0.10;;;;;;;;;;5017998;28;20132;-92
2023/09/12 13:16:35;;;;;;;0.10;0.10;;;;;;;;;;5017711;28;20469;-91
2023/09/12 13:19:01;;;;;;;0.20;0.20;;;;;;;;;;5017492;28;20073;-92
2023/09/12 13:21:28;;;;;;;0.10;0.10;;;;;;;;;;5034194;28;20049;-93
2023/09/12 13:23:54;;;;;;;0.10;0.10;;;;;;;;;;5001816;28;20045;-94
2023/09/12 13:26:20;;;;;;;0.10;0.10;;;;;;;;;;5001390;28;20084;-94
2023/09/12 13:28:50;;;;;;;0.10;0.10;;;;;;;;;;5001346;28;20038;-93
2023/09/12 13:31:17;;;;;;;0.10;0.10;;;;;;;;;;5017743;28;20042;-93
2023/09/12 13:33:43;;;;;;;0.10;0.10;;;;;;;;;;5035039;28;20504;-93
2023/09/12 13:36:09;;;;;;;0.10;0.10;;;;;;;;;;5034830;28;20041;-93
2023/09/12 13:38:36;;;;;;;0.10;0.10;;;;;;;;;;5017780;28;20140;-93
2023/09/12 13:41:02;;;;;;;0.10;0.10;;;;;;;;;;5033975;28;20044;-92
2023/09/12 13:43:28;;;;;;;0.10;0.10;;;;;;;;;;5034218;28;20048;-93
2023/09/12 13:45:54;;;;;;;0.10;0.10;;;;;;;;;;5034085;28;20037;-94
2023/09/12 13:48:20;;;;;;;0.10;0.10;;;;;;;;;;5034023;28;20122;-92
2023/09/12 13:50:46;;;;;;;0.10;0.10;;;;;;;;;;5034161;28;20100;-93
2023/09/12 13:53:13;;;;;;;0.20;0.20;;;;;;;;;;5017704;28;20053;-93
2023/09/12 13:55:39;;;;;;;0.20;0.20;;;;;;;;;;5017058;28;20046;-93
2023/09/12 13:58:05;;;;;;;0.10;0.10;;;;;;;;;;5033557;28;20137;-93
2023/09/12 14:00:32;;;;;;;0.10;0.10;;;;;;;;;;5017221;28;20045;-92
2023/09/12 14:02:58;;;;;;;0.10;0.10;;;;;;;;;;5017105;28;20397;-92
2023/09/12 14:05:24;;;;;;;0.10;0.10;;;;;;;;;;5016834;28;20056;-93
2023/09/12 14:07:50;;;;;;;0.30;0.30;;;;;;;;;;5016470;28;20080;-92
2023/09/12 14:10:17;;;;;;;0.20;0.20;;;;;;;;;;5033240;28;20060;-93
2023/09/12 14:12:44;;;;;;;0.10;0.10;;;;;;;;;;5016752;28;20071;-94
2023/09/12 14:15:10;;;;;;;0.10;0.10;;;;;;;;;;5017109;28;20129;-94
2023/09/12 14:17:36;;;;;;;0.13;0.13;;;;;;;;;;5033023;28;20045;-96
2023/09/12 14:20:03;;;;;;;0.10;0.10;;;;;;;;;;5017050;28;20365;-92
2023/09/12 14:22:29;;;;;;;0.15;0.15;;;;;;;;;;5033427;28;20049;-91
2023/09/12 14:24:55;;;;;;;0.10;0.10;;;;;;;;;;5032923;28;20041;-93
2023/09/12 14:27:21;;;;;;;0.10;0.10;;;;;;;;;;5016432;28;20085;-94
2023/09/12 14:29:49;;;;;;;0.10;0.10;;;;;;;;;;5017131;28;20214;-94
2023/09/12 14:32:15;;;;;;;0.10;0.10;;;;;;;;;;5017603;28;20051;-94
2023/09/12 14:34:41;;;;;;;0.10;0.10;;;;;;;;;;5016904;28;20045;-94
2023/09/12 14:37:07;;;;;;;0.20;0.20;;;;;;;;;;5033130;28;20097;-93
2023/09/12 14:39:33;;;;;;;0.10;0.10;;;;;;;;;;5033587;28;20116;-95
2023/09/12 14:42:02;;;;;;;0.10;0.10;;;;;;;;;;5016520;28;20044;-93